sensor_id;sensor_type;location;lat;lon;timestamp;temperature;humidity
4390;DHT22;2209;48.982;8.406;2024-01-16T00:00:17;2.10;99.90
4390;DHT22;2209;48.982;8.406;2024-01-16T00:02:40;2.10;99.90
4390;DHT22;2209;48.982;8.406;2024-01-16T00:05:04;2.10;99.90
4390;DHT22;2209;48.982;8.406;2024-01-16T00:07:26;2.10;99.90
4390;DHT22;2209;48.982;8.406;2024-01-16T00:09:48;2.10;99.90
4390;DHT22;2209;48.982;8.406;2024-01-16T00:12:13;2.10;99.90
4390;DHT22;2209;48.982;8.406;2024-01-16T00:14:36;2.10;99.90
4390;DHT22;2209;48.982;8.406;2024-01-16T00:16:58;2.10;99.90
4390;DHT22;2209;48.982;8.406;2024-01-16T00:19:20;2.10;99.90
4390;DHT22;2209;48.982;8.406;2024-01-16T00:21:45;2.10;99.90
4390;DHT22;2209;48.982;8.406;2024-01-16T00:24:07;2.10;99.90
4390;DHT22;2209;48.982;8.406;2024-01-16T00:26:30;2.10;99.90
4390;DHT22;2209;48.982;8.406;2024-01-16T00:28:52;2.10;99.90
4390;DHT22;2209;48.982;8.406;2024-01-16T00:31:15;2.10;99.90
4390;DHT22;2209;48.982;8.406;2024-01-16T00:33:37;2.20;99.90
4390;DHT22;2209;48.982;8.406;2024-01-16T00:35:59;2.20;99.90
4390;DHT22;2209;48.982;8.406;2024-01-16T00:38:23;2.20;99.90
4390;DHT22;2209;48.982;8.406;2024-01-16T00:40:45;2.20;99.90
4390;DHT22;2209;48.982;8.406;2024-01-16T00:43:07;2.10;99.90
4390;DHT22;2209;48.982;8.406;2024-01-16T00:45:29;2.20;99.90
4390;DHT22;2209;48.982;8.406;2024-01-16T00:47:52;2.20;99.90
4390;DHT22;2209;48.982;8.406;2024-01-16T00:50:14;2.20;99.90
4390;DHT22;2209;48.982;8.406;2024-01-16T00:52:36;2.20;99.90
4390;DHT22;2209;48.982;8.406;2024-01-16T00:54:59;2.10;99.90
4390;DHT22;2209;48.982;8.406;2024-01-16T00:57:21;2.20;99.90
4390;DHT22;2209;48.982;8.406;2024-01-16T00:59:43;2.10;99.90
4390;DHT22;2209;48.982;8.406;2024-01-16T01:02:05;2.10;99.90
4390;DHT22;2209;48.982;8.406;2024-01-16T01:04:32;2.10;99.90
4390;DHT22;2209;48.982;8.406;2024-01-16T01:06:55;2.10;99.90
4390;DHT22;2209;48.982;8.406;2024-01-16T01:09:17;2.10;99.90
4390;DHT22;2209;48.982;8.406;2024-01-16T01:11:41;2.10;99.90
4390;DHT22;2209;48.982;8.406;2024-01-16T01:14:03;2.10;99.90
4390;DHT22;2209;48.982;8.406;2024-01-16T01:16:25;2.10;99.90
4390;DHT22;2209;48.982;8.406;2024-01-16T01:18:48;2.10;99.90
4390;DHT22;2209;48.982;8.406;2024-01-16T01:21:10;2.10;99.90
4390;DHT22;2209;48.982;8.406;2024-01-16T01:23:32;2.10;99.90
4390;DHT22;2209;48.982;8.406;2024-01-16T01:25:54;2.10;99.90
4390;DHT22;2209;48.982;8.406;2024-01-16T01:28:17;2.10;99.90
4390;DHT22;2209;48.982;8.406;2024-01-16T01:30:39;2.10;99.90
4390;DHT22;2209;48.982;8.406;2024-01-16T01:33:02;2.10;99.90
4390;DHT22;2209;48.982;8.406;2024-01-16T01:35:24;2.10;99.90
4390;DHT22;2209;48.982;8.406;2024-01-16T01:37:46;2.10;99.90
4390;DHT22;2209;48.982;8.406;2024-01-16T01:40:09;2.10;99.90
4390;DHT22;2209;48.982;8.406;2024-01-16T01:42:33;2.10;99.90
4390;DHT22;2209;48.982;8.406;2024-01-16T01:44:56;2.00;99.90
4390;DHT22;2209;48.982;8.406;2024-01-16T01:47:19;2.00;99.90
4390;DHT22;2209;48.982;8.406;2024-01-16T01:49:41;2.00;99.90
4390;DHT22;2209;48.982;8.406;2024-01-16T01:52:04;2.00;99.90
4390;DHT22;2209;48.982;8.406;2024-01-16T01:54:26;2.00;99.90
4390;DHT22;2209;48.982;8.406;2024-01-16T01:56:49;2.10;99.90
4390;DHT22;2209;48.982;8.406;2024-01-16T01:59:11;2.00;99.90
4390;DHT22;2209;48.982;8.406;2024-01-16T02:01:36;2.00;99.90
4390;DHT22;2209;48.982;8.406;2024-01-16T02:03:59;2.00;99.90
4390;DHT22;2209;48.982;8.406;2024-01-16T02:06:23;2.10;99.90
4390;DHT22;2209;48.982;8.406;2024-01-16T02:08:45;2.00;99.90
4390;DHT22;2209;48.982;8.406;2024-01-16T02:11:07;2.00;99.90
4390;DHT22;2209;48.982;8.406;2024-01-16T02:13:30;2.00;99.90
4390;DHT22;2209;48.982;8.406;2024-01-16T02:15:52;2.00;99.90
4390;DHT22;2209;48.982;8.406;2024-01-16T02:18:16;2.00;99.90
4390;DHT22;2209;48.982;8.406;2024-01-16T02:20:38;2.00;99.90
4390;DHT22;2209;48.982;8.406;2024-01-16T02:23:03;2.00;99.90
4390;DHT22;2209;48.982;8.406;2024-01-16T02:25:27;1.90;99.90
4390;DHT22;2209;48.982;8.406;2024-01-16T02:27:49;1.90;99.90
4390;DHT22;2209;48.982;8.406;2024-01-16T02:30:11;1.90;99.90
4390;DHT22;2209;48.982;8.406;2024-01-16T02:32:34;1.90;99.90
4390;DHT22;2209;48.982;8.406;2024-01-16T02:34:56;1.90;99.90
4390;DHT22;2209;48.982;8.406;2024-01-16T02:37:18;1.90;99.90
4390;DHT22;2209;48.982;8.406;2024-01-16T02:39:40;1.90;99.90
4390;DHT22;2209;48.982;8.406;2024-01-16T02:42:04;1.90;99.90
4390;DHT22;2209;48.982;8.406;2024-01-16T02:44:27;1.90;99.90
4390;DHT22;2209;48.982;8.406;2024-01-16T02:46:49;1.90;99.90
4390;DHT22;2209;48.982;8.406;2024-01-16T02:49:11;1.90;99.90
4390;DHT22;2209;48.982;8.406;2024-01-16T02:51:33;1.90;99.90
4390;DHT22;2209;48.982;8.406;2024-01-16T02:53:55;1.80;99.90
4390;DHT22;2209;48.982;8.406;2024-01-16T02:56:17;1.80;99.90
4390;DHT22;2209;48.982;8.406;2024-01-16T02:58:41;1.80;99.90
4390;DHT22;2209;48.982;8.406;2024-01-16T03:01:04;1.80;99.90
4390;DHT22;2209;48.982;8.406;2024-01-16T03:03:26;1.80;99.90
4390;DHT22;2209;48.982;8.406;2024-01-16T03:05:49;1.80;99.90
4390;DHT22;2209;48.982;8.406;2024-01-16T03:08:11;1.80;99.90
4390;DHT22;2209;48.982;8.406;2024-01-16T03:10:33;1.80;99.90
4390;DHT22;2209;48.982;8.406;2024-01-16T03:12:55;1.70;99.90
4390;DHT22;2209;48.982;8.406;2024-01-16T03:15:19;1.70;99.90
4390;DHT22;2209;48.982;8.406;2024-01-16T03:17:41;1.70;99.90
4390;DHT22;2209;48.982;8.406;2024-01-16T03:20:04;1.80;99.90
4390;DHT22;2209;48.982;8.406;2024-01-16T03:22:27;1.80;99.90
4390;DHT22;2209;48.982;8.406;2024-01-16T03:24:49;1.80;99.90
4390;DHT22;2209;48.982;8.406;2024-01-16T03:27:12;1.80;99.90
4390;DHT22;2209;48.982;8.406;2024-01-16T03:29:34;1.80;99.90
4390;DHT22;2209;48.982;8.406;2024-01-16T03:31:57;1.80;99.90
4390;DHT22;2209;48.982;8.406;2024-01-16T03:34:19;1.70;99.90
4390;DHT22;2209;48.982;8.406;2024-01-16T03:36:42;1.70;99.90
4390;DHT22;2209;48.982;8.406;2024-01-16T03:39:04;1.70;99.90
4390;DHT22;2209;48.982;8.406;2024-01-16T03:41:26;1.70;99.90
4390;DHT22;2209;48.982;8.406;2024-01-16T03:43:48;1.70;99.90
4390;DHT22;2209;48.982;8.406;2024-01-16T03:46:10;1.60;99.90
4390;DHT22;2209;48.982;8.406;2024-01-16T03:48:34;1.70;99.90
4390;DHT22;2209;48.982;8.406;2024-01-16T03:50:56;1.70;99.90
4390;DHT22;2209;48.982;8.406;2024-01-16T03:53:20;1.60;99.90
4390;DHT22;2209;48.982;8.406;2024-01-16T03:55:42;1.60;99.90
4390;DHT22;2209;48.982;8.406;2024-01-16T03:58:05;1.60;99.90
4390;DHT22;2209;48.982;8.406;2024-01-16T04:00:28;1.60;99.90
4390;DHT22;2209;48.982;8.406;2024-01-16T04:02:50;1.60;99.90
4390;DHT22;2209;48.982;8.406;2024-01-16T04:05:13;1.60;99.90
4390;DHT22;2209;48.982;8.406;2024-01-16T04:07:35;1.50;99.90
4390;DHT22;2209;48.982;8.406;2024-01-16T04:09:57;1.50;99.90
4390;DHT22;2209;48.982;8.406;2024-01-16T04:12:19;1.50;99.90
4390;DHT22;2209;48.982;8.406;2024-01-16T04:14:41;1.50;99.90
4390;DHT22;2209;48.982;8.406;2024-01-16T04:17:03;1.50;99.90
4390;DHT22;2209;48.982;8.406;2024-01-16T04:19:25;1.50;99.90
4390;DHT22;2209;48.982;8.406;2024-01-16T04:21:49;1.50;99.90
4390;DHT22;2209;48.982;8.406;2024-01-16T04:24:11;1.50;99.90
4390;DHT22;2209;48.982;8.406;2024-01-16T04:26:35;1.50;99.90
4390;DHT22;2209;48.982;8.406;2024-01-16T04:28:58;1.50;99.90
4390;DHT22;2209;48.982;8.406;2024-01-16T04:31:20;1.50;99.90
4390;DHT22;2209;48.982;8.406;2024-01-16T04:33:43;1.50;99.90
4390;DHT22;2209;48.982;8.406;2024-01-16T04:36:05;1.50;99.90
4390;DHT22;2209;48.982;8.406;2024-01-16T04:38:30;1.50;99.90
4390;DHT22;2209;48.982;8.406;2024-01-16T04:40:52;1.50;99.90
4390;DHT22;2209;48.982;8.406;2024-01-16T04:43:14;1.40;99.90
4390;DHT22;2209;48.982;8.406;2024-01-16T04:45:36;1.40;99.90
4390;DHT22;2209;48.982;8.406;2024-01-16T04:47:58;1.40;99.90
4390;DHT22;2209;48.982;8.406;2024-01-16T04:50:20;1.40;99.90
4390;DHT22;2209;48.982;8.406;2024-01-16T04:52:42;1.40;99.90
4390;DHT22;2209;48.982;8.406;2024-01-16T04:55:07;1.40;99.90
4390;DHT22;2209;48.982;8.406;2024-01-16T04:57:29;1.40;99.90
4390;DHT22;2209;48.982;8.406;2024-01-16T04:59:51;1.40;99.90
4390;DHT22;2209;48.982;8.406;2024-01-16T05:02:14;1.40;99.90
4390;DHT22;2209;48.982;8.406;2024-01-16T05:04:38;1.40;99.90
4390;DHT22;2209;48.982;8.406;2024-01-16T05:07:00;1.40;99.90
4390;DHT22;2209;48.982;8.406;2024-01-16T05:09:22;1.40;99.90
4390;DHT22;2209;48.982;8.406;2024-01-16T05:11:45;1.40;99.90
4390;DHT22;2209;48.982;8.406;2024-01-16T05:14:07;1.40;99.90
4390;DHT22;2209;48.982;8.406;2024-01-16T05:16:30;1.40;99.90
4390;DHT22;2209;48.982;8.406;2024-01-16T05:18:52;1.40;99.90
4390;DHT22;2209;48.982;8.406;2024-01-16T05:21:14;1.30;99.90
4390;DHT22;2209;48.982;8.406;2024-01-16T05:23:36;1.30;99.90
4390;DHT22;2209;48.982;8.406;2024-01-16T05:25:59;1.30;99.90
4390;DHT22;2209;48.982;8.406;2024-01-16T05:28:25;1.30;99.90
4390;DHT22;2209;48.982;8.406;2024-01-16T05:30:47;1.30;99.90
4390;DHT22;2209;48.982;8.406;2024-01-16T05:33:09;1.20;99.90
4390;DHT22;2209;48.982;8.406;2024-01-16T05:35:31;1.20;99.90
4390;DHT22;2209;48.982;8.406;2024-01-16T05:37:53;1.20;99.90
4390;DHT22;2209;48.982;8.406;2024-01-16T05:40:16;1.10;99.90
4390;DHT22;2209;48.982;8.406;2024-01-16T05:42:38;1.20;99.90
4390;DHT22;2209;48.982;8.406;2024-01-16T05:45:02;1.20;99.90
4390;DHT22;2209;48.982;8.406;2024-01-16T05:47:25;1.20;99.90
4390;DHT22;2209;48.982;8.406;2024-01-16T05:49:48;1.20;99.90
4390;DHT22;2209;48.982;8.406;2024-01-16T05:52:10;1.20;99.90
4390;DHT22;2209;48.982;8.406;2024-01-16T05:54:32;1.20;99.90
4390;DHT22;2209;48.982;8.406;2024-01-16T05:56:55;1.10;99.90
4390;DHT22;2209;48.982;8.406;2024-01-16T05:59:19;1.20;99.90
4390;DHT22;2209;48.982;8.406;2024-01-16T06:01:43;1.20;99.90
4390;DHT22;2209;48.982;8.406;2024-01-16T06:04:05;1.20;99.90
4390;DHT22;2209;48.982;8.406;2024-01-16T06:06:27;1.10;99.90
4390;DHT22;2209;48.982;8.406;2024-01-16T06:08:49;1.10;99.90
4390;DHT22;2209;48.982;8.406;2024-01-16T06:11:11;1.10;99.90
4390;DHT22;2209;48.982;8.406;2024-01-16T06:13:33;1.10;99.90
4390;DHT22;2209;48.982;8.406;2024-01-16T06:15:55;1.10;99.90
4390;DHT22;2209;48.982;8.406;2024-01-16T06:18:18;1.00;99.90
4390;DHT22;2209;48.982;8.406;2024-01-16T06:20:41;1.10;99.90
4390;DHT22;2209;48.982;8.406;2024-01-16T06:23:03;1.10;99.90
4390;DHT22;2209;48.982;8.406;2024-01-16T06:25:25;1.10;99.90
4390;DHT22;2209;48.982;8.406;2024-01-16T06:27:47;1.10;99.90
4390;DHT22;2209;48.982;8.406;2024-01-16T06:30:10;1.10;99.90
4390;DHT22;2209;48.982;8.406;2024-01-16T06:32:32;1.10;99.90
4390;DHT22;2209;48.982;8.406;2024-01-16T06:34:56;1.20;99.90
4390;DHT22;2209;48.982;8.406;2024-01-16T06:37:18;1.20;99.90
4390;DHT22;2209;48.982;8.406;2024-01-16T06:39:40;1.20;99.90
4390;DHT22;2209;48.982;8.406;2024-01-16T06:42:02;1.10;99.90
4390;DHT22;2209;48.982;8.406;2024-01-16T06:44:25;1.10;99.90
4390;DHT22;2209;48.982;8.406;2024-01-16T06:46:47;1.10;99.90
4390;DHT22;2209;48.982;8.406;2024-01-16T06:49:09;1.10;99.90
4390;DHT22;2209;48.982;8.406;2024-01-16T06:51:33;1.20;99.90
4390;DHT22;2209;48.982;8.406;2024-01-16T06:53:55;1.20;99.90
4390;DHT22;2209;48.982;8.406;2024-01-16T06:56:17;1.10;99.90
4390;DHT22;2209;48.982;8.406;2024-01-16T06:58:39;1.20;99.90
4390;DHT22;2209;48.982;8.406;2024-01-16T07:01:01;1.10;99.90
4390;DHT22;2209;48.982;8.406;2024-01-16T07:03:23;1.10;99.90
4390;DHT22;2209;48.982;8.406;2024-01-16T07:05:45;1.10;99.90
4390;DHT22;2209;48.982;8.406;2024-01-16T07:08:09;1.10;99.90
4390;DHT22;2209;48.982;8.406;2024-01-16T07:10:31;1.10;99.90
4390;DHT22;2209;48.982;8.406;2024-01-16T07:12:53;1.10;99.90
4390;DHT22;2209;48.982;8.406;2024-01-16T07:15:16;1.10;99.90
4390;DHT22;2209;48.982;8.406;2024-01-16T07:17:38;1.10;99.90
4390;DHT22;2209;48.982;8.406;2024-01-16T07:20:00;1.10;99.90
4390;DHT22;2209;48.982;8.406;2024-01-16T07:22:23;1.10;99.90
4390;DHT22;2209;48.982;8.406;2024-01-16T07:24:46;1.10;99.90
4390;DHT22;2209;48.982;8.406;2024-01-16T07:27:08;1.00;99.90
4390;DHT22;2209;48.982;8.406;2024-01-16T07:29:30;1.00;99.90
4390;DHT22;2209;48.982;8.406;2024-01-16T07:31:52;1.00;99.90
4390;DHT22;2209;48.982;8.406;2024-01-16T07:34:14;1.00;99.90
4390;DHT22;2209;48.982;8.406;2024-01-16T07:36:40;1.00;99.90
4390;DHT22;2209;48.982;8.406;2024-01-16T07:39:03;1.00;99.90
4390;DHT22;2209;48.982;8.406;2024-01-16T07:41:26;1.00;99.90
4390;DHT22;2209;48.982;8.406;2024-01-16T07:43:48;1.00;99.90
4390;DHT22;2209;48.982;8.406;2024-01-16T07:46:11;1.00;99.90
4390;DHT22;2209;48.982;8.406;2024-01-16T07:48:33;1.00;99.90
4390;DHT22;2209;48.982;8.406;2024-01-16T07:50:55;1.00;99.90
4390;DHT22;2209;48.982;8.406;2024-01-16T07:53:17;1.00;99.90
4390;DHT22;2209;48.982;8.406;2024-01-16T07:55:45;1.00;99.90
4390;DHT22;2209;48.982;8.406;2024-01-16T07:58:09;1.10;99.90
4390;DHT22;2209;48.982;8.406;2024-01-16T08:00:31;1.10;99.90
4390;DHT22;2209;48.982;8.406;2024-01-16T08:02:53;1.00;99.90
4390;DHT22;2209;48.982;8.406;2024-01-16T08:05:15;1.10;99.90
4390;DHT22;2209;48.982;8.406;2024-01-16T08:07:38;1.10;99.90
4390;DHT22;2209;48.982;8.406;2024-01-16T08:10:00;1.10;99.90
4390;DHT22;2209;48.982;8.406;2024-01-16T08:12:22;1.10;99.90
4390;DHT22;2209;48.982;8.406;2024-01-16T08:14:45;1.10;99.90
4390;DHT22;2209;48.982;8.406;2024-01-16T08:17:07;1.10;99.90
4390;DHT22;2209;48.982;8.406;2024-01-16T08:19:29;1.10;99.90
4390;DHT22;2209;48.982;8.406;2024-01-16T08:21:51;1.10;99.90
4390;DHT22;2209;48.982;8.406;2024-01-16T08:24:13;1.10;99.90
4390;DHT22;2209;48.982;8.406;2024-01-16T08:26:35;1.10;99.90
4390;DHT22;2209;48.982;8.406;2024-01-16T08:28:58;1.10;99.90
4390;DHT22;2209;48.982;8.406;2024-01-16T08:31:21;1.10;99.90
4390;DHT22;2209;48.982;8.406;2024-01-16T08:33:43;1.10;99.90
4390;DHT22;2209;48.982;8.406;2024-01-16T08:36:06;1.20;99.90
4390;DHT22;2209;48.982;8.406;2024-01-16T08:38:28;1.20;99.90
4390;DHT22;2209;48.982;8.406;2024-01-16T08:40:50;1.20;99.90
4390;DHT22;2209;48.982;8.406;2024-01-16T08:43:12;1.10;99.90
4390;DHT22;2209;48.982;8.406;2024-01-16T08:45:34;1.10;99.90
4390;DHT22;2209;48.982;8.406;2024-01-16T08:47:57;1.10;99.90
4390;DHT22;2209;48.982;8.406;2024-01-16T08:50:20;1.10;99.90
4390;DHT22;2209;48.982;8.406;2024-01-16T08:52:42;1.20;99.90
4390;DHT22;2209;48.982;8.406;2024-01-16T08:55:05;1.20;99.90
4390;DHT22;2209;48.982;8.406;2024-01-16T08:57:27;1.20;99.90
4390;DHT22;2209;48.982;8.406;2024-01-16T08:59:49;1.10;99.90
4390;DHT22;2209;48.982;8.406;2024-01-16T09:02:11;1.10;99.90
4390;DHT22;2209;48.982;8.406;2024-01-16T09:04:34;1.10;99.90
4390;DHT22;2209;48.982;8.406;2024-01-16T09:06:56;1.10;99.90
4390;DHT22;2209;48.982;8.406;2024-01-16T09:09:18;1.10;99.90
4390;DHT22;2209;48.982;8.406;2024-01-16T09:11:40;1.10;99.90
4390;DHT22;2209;48.982;8.406;2024-01-16T09:14:03;1.10;99.90
4390;DHT22;2209;48.982;8.406;2024-01-16T09:16:25;1.10;99.90
4390;DHT22;2209;48.982;8.406;2024-01-16T09:18:47;1.10;99.90
4390;DHT22;2209;48.982;8.406;2024-01-16T09:21:10;1.20;99.90
4390;DHT22;2209;48.982;8.406;2024-01-16T09:23:32;1.20;99.90
4390;DHT22;2209;48.982;8.406;2024-01-16T09:25:54;1.20;99.90
4390;DHT22;2209;48.982;8.406;2024-01-16T09:28:17;1.20;99.90
4390;DHT22;2209;48.982;8.406;2024-01-16T09:30:39;1.20;99.90
4390;DHT22;2209;48.982;8.406;2024-01-16T09:33:01;1.20;99.90
4390;DHT22;2209;48.982;8.406;2024-01-16T09:35:25;1.20;99.90
4390;DHT22;2209;48.982;8.406;2024-01-16T09:37:48;1.20;99.90
4390;DHT22;2209;48.982;8.406;2024-01-16T09:40:11;1.20;99.90
4390;DHT22;2209;48.982;8.406;2024-01-16T09:42:34;1.20;99.90
4390;DHT22;2209;48.982;8.406;2024-01-16T09:44:56;1.30;99.90
4390;DHT22;2209;48.982;8.406;2024-01-16T09:47:19;1.30;99.90
4390;DHT22;2209;48.982;8.406;2024-01-16T09:49:42;1.30;99.90
4390;DHT22;2209;48.982;8.406;2024-01-16T09:52:05;1.30;99.90
4390;DHT22;2209;48.982;8.406;2024-01-16T09:54:28;1.30;99.90
4390;DHT22;2209;48.982;8.406;2024-01-16T09:56:51;1.30;99.90
4390;DHT22;2209;48.982;8.406;2024-01-16T09:59:17;1.30;99.90
4390;DHT22;2209;48.982;8.406;2024-01-16T10:01:40;1.30;99.90
4390;DHT22;2209;48.982;8.406;2024-01-16T10:04:03;1.30;99.90
4390;DHT22;2209;48.982;8.406;2024-01-16T10:06:27;1.30;99.90
4390;DHT22;2209;48.982;8.406;2024-01-16T10:08:49;1.40;99.90
4390;DHT22;2209;48.982;8.406;2024-01-16T10:11:12;1.40;99.90
4390;DHT22;2209;48.982;8.406;2024-01-16T10:13:35;1.40;99.90
4390;DHT22;2209;48.982;8.406;2024-01-16T10:15:58;1.40;99.90
4390;DHT22;2209;48.982;8.406;2024-01-16T10:18:24;1.40;99.90
4390;DHT22;2209;48.982;8.406;2024-01-16T10:20:46;1.40;99.90
4390;DHT22;2209;48.982;8.406;2024-01-16T10:23:09;1.40;99.90
4390;DHT22;2209;48.982;8.406;2024-01-16T10:25:31;1.40;99.90
4390;DHT22;2209;48.982;8.406;2024-01-16T10:28:03;1.50;99.90
4390;DHT22;2209;48.982;8.406;2024-01-16T10:30:25;1.50;99.90
4390;DHT22;2209;48.982;8.406;2024-01-16T10:32:47;1.50;99.90
4390;DHT22;2209;48.982;8.406;2024-01-16T10:35:10;1.50;99.90
4390;DHT22;2209;48.982;8.406;2024-01-16T10:37:41;1.50;99.90
4390;DHT22;2209;48.982;8.406;2024-01-16T10:40:05;1.50;99.90
4390;DHT22;2209;48.982;8.406;2024-01-16T10:42:29;1.50;99.90
4390;DHT22;2209;48.982;8.406;2024-01-16T10:44:55;1.50;99.90
4390;DHT22;2209;48.982;8.406;2024-01-16T10:47:17;1.50;99.90
4390;DHT22;2209;48.982;8.406;2024-01-16T10:49:39;1.50;99.90
4390;DHT22;2209;48.982;8.406;2024-01-16T10:52:01;1.50;99.90
4390;DHT22;2209;48.982;8.406;2024-01-16T10:54:24;1.50;99.90
4390;DHT22;2209;48.982;8.406;2024-01-16T10:56:46;1.50;99.90
4390;DHT22;2209;48.982;8.406;2024-01-16T10:59:15;1.50;99.90
4390;DHT22;2209;48.982;8.406;2024-01-16T11:01:42;1.50;99.90
4390;DHT22;2209;48.982;8.406;2024-01-16T11:04:05;1.50;99.90
4390;DHT22;2209;48.982;8.406;2024-01-16T11:06:28;1.50;99.90
4390;DHT22;2209;48.982;8.406;2024-01-16T11:08:52;1.50;99.90
4390;DHT22;2209;48.982;8.406;2024-01-16T11:11:16;1.50;99.90
4390;DHT22;2209;48.982;8.406;2024-01-16T11:13:38;1.60;99.90
4390;DHT22;2209;48.982;8.406;2024-01-16T11:16:02;1.60;99.90
4390;DHT22;2209;48.982;8.406;2024-01-16T11:18:27;1.60;99.90
4390;DHT22;2209;48.982;8.406;2024-01-16T11:20:51;1.70;99.90
4390;DHT22;2209;48.982;8.406;2024-01-16T11:23:15;1.70;99.90
4390;DHT22;2209;48.982;8.406;2024-01-16T11:25:37;1.70;99.90
4390;DHT22;2209;48.982;8.406;2024-01-16T11:28:08;1.70;99.90
4390;DHT22;2209;48.982;8.406;2024-01-16T11:30:31;1.80;99.90
4390;DHT22;2209;48.982;8.406;2024-01-16T11:32:53;1.80;99.90
4390;DHT22;2209;48.982;8.406;2024-01-16T11:35:31;1.80;99.90
4390;DHT22;2209;48.982;8.406;2024-01-16T11:37:54;1.90;99.90
4390;DHT22;2209;48.982;8.406;2024-01-16T11:40:25;1.90;99.90
4390;DHT22;2209;48.982;8.406;2024-01-16T11:42:49;1.90;99.90
4390;DHT22;2209;48.982;8.406;2024-01-16T11:45:50;1.90;99.90
4390;DHT22;2209;48.982;8.406;2024-01-16T11:48:13;1.90;99.90
4390;DHT22;2209;48.982;8.406;2024-01-16T11:50:37;1.90;99.90
4390;DHT22;2209;48.982;8.406;2024-01-16T11:52:59;1.90;99.90
4390;DHT22;2209;48.982;8.406;2024-01-16T11:55:28;1.90;99.90
4390;DHT22;2209;48.982;8.406;2024-01-16T11:58:04;2.00;99.90
4390;DHT22;2209;48.982;8.406;2024-01-16T12:00:31;2.00;99.90
4390;DHT22;2209;48.982;8.406;2024-01-16T12:02:56;2.00;99.90
4390;DHT22;2209;48.982;8.406;2024-01-16T12:05:18;2.00;99.90
4390;DHT22;2209;48.982;8.406;2024-01-16T12:07:47;2.00;99.90
4390;DHT22;2209;48.982;8.406;2024-01-16T12:10:10;2.00;99.90
4390;DHT22;2209;48.982;8.406;2024-01-16T12:12:33;2.00;99.90
4390;DHT22;2209;48.982;8.406;2024-01-16T12:14:55;2.00;99.90
4390;DHT22;2209;48.982;8.406;2024-01-16T12:17:17;2.00;99.90
4390;DHT22;2209;48.982;8.406;2024-01-16T12:19:41;2.00;99.90
4390;DHT22;2209;48.982;8.406;2024-01-16T12:22:04;2.00;99.90
4390;DHT22;2209;48.982;8.406;2024-01-16T12:24:27;2.00;99.90
4390;DHT22;2209;48.982;8.406;2024-01-16T12:26:50;2.00;99.90
4390;DHT22;2209;48.982;8.406;2024-01-16T12:29:17;2.00;99.90
4390;DHT22;2209;48.982;8.406;2024-01-16T12:31:40;2.10;99.90
4390;DHT22;2209;48.982;8.406;2024-01-16T12:34:05;2.10;99.90
4390;DHT22;2209;48.982;8.406;2024-01-16T12:36:28;2.10;99.90
4390;DHT22;2209;48.982;8.406;2024-01-16T12:38:54;2.20;99.90
4390;DHT22;2209;48.982;8.406;2024-01-16T12:41:18;2.20;99.90
4390;DHT22;2209;48.982;8.406;2024-01-16T12:43:41;2.20;99.90
4390;DHT22;2209;48.982;8.406;2024-01-16T12:46:03;2.20;99.90
4390;DHT22;2209;48.982;8.406;2024-01-16T12:48:27;2.30;99.90
4390;DHT22;2209;48.982;8.406;2024-01-16T12:50:49;2.30;99.90
4390;DHT22;2209;48.982;8.406;2024-01-16T12:53:11;2.30;99.90
4390;DHT22;2209;48.982;8.406;2024-01-16T12:55:35;2.30;99.90
4390;DHT22;2209;48.982;8.406;2024-01-16T12:58:16;2.40;99.90
4390;DHT22;2209;48.982;8.406;2024-01-16T13:00:38;2.40;99.90
4390;DHT22;2209;48.982;8.406;2024-01-16T13:03:00;2.40;99.90
4390;DHT22;2209;48.982;8.406;2024-01-16T13:05:22;2.40;99.90
4390;DHT22;2209;48.982;8.406;2024-01-16T13:07:46;2.50;99.90
4390;DHT22;2209;48.982;8.406;2024-01-16T13:10:20;2.50;99.90
4390;DHT22;2209;48.982;8.406;2024-01-16T13:12:43;2.50;99.90
4390;DHT22;2209;48.982;8.406;2024-01-16T13:15:08;2.50;99.90
4390;DHT22;2209;48.982;8.406;2024-01-16T13:17:32;2.50;99.90
4390;DHT22;2209;48.982;8.406;2024-01-16T13:19:55;2.50;99.90
4390;DHT22;2209;48.982;8.406;2024-01-16T13:22:17;2.60;99.90
4390;DHT22;2209;48.982;8.406;2024-01-16T13:24:39;2.60;99.90
4390;DHT22;2209;48.982;8.406;2024-01-16T13:27:02;2.60;99.90
4390;DHT22;2209;48.982;8.406;2024-01-16T13:29:25;2.60;99.90
4390;DHT22;2209;48.982;8.406;2024-01-16T13:31:48;2.70;99.90
4390;DHT22;2209;48.982;8.406;2024-01-16T13:34:15;2.80;99.90
4390;DHT22;2209;48.982;8.406;2024-01-16T13:36:38;2.90;99.90
4390;DHT22;2209;48.982;8.406;2024-01-16T13:39:00;2.90;99.90
4390;DHT22;2209;48.982;8.406;2024-01-16T13:41:24;2.90;99.90
4390;DHT22;2209;48.982;8.406;2024-01-16T13:43:46;2.90;99.90
4390;DHT22;2209;48.982;8.406;2024-01-16T13:46:10;3.00;99.90
4390;DHT22;2209;48.982;8.406;2024-01-16T13:48:36;3.10;99.90
4390;DHT22;2209;48.982;8.406;2024-01-16T13:50:58;3.20;99.90
4390;DHT22;2209;48.982;8.406;2024-01-16T13:53:20;3.20;99.90
4390;DHT22;2209;48.982;8.406;2024-01-16T13:55:42;3.20;99.90
4390;DHT22;2209;48.982;8.406;2024-01-16T13:58:04;3.30;99.90
4390;DHT22;2209;48.982;8.406;2024-01-16T14:00:27;3.40;99.90
4390;DHT22;2209;48.982;8.406;2024-01-16T14:02:49;3.40;99.90
4390;DHT22;2209;48.982;8.406;2024-01-16T14:05:14;3.50;99.90
4390;DHT22;2209;48.982;8.406;2024-01-16T14:07:37;3.50;99.90
4390;DHT22;2209;48.982;8.406;2024-01-16T14:09:59;3.50;99.90
4390;DHT22;2209;48.982;8.406;2024-01-16T14:12:23;3.60;99.90
4390;DHT22;2209;48.982;8.406;2024-01-16T14:14:45;3.60;99.90
4390;DHT22;2209;48.982;8.406;2024-01-16T14:17:08;3.70;99.90
4390;DHT22;2209;48.982;8.406;2024-01-16T14:19:29;3.80;99.90
4390;DHT22;2209;48.982;8.406;2024-01-16T14:21:53;3.90;99.90
4390;DHT22;2209;48.982;8.406;2024-01-16T14:24:15;3.90;99.90
4390;DHT22;2209;48.982;8.406;2024-01-16T14:26:37;4.00;99.90
4390;DHT22;2209;48.982;8.406;2024-01-16T14:28:59;3.90;99.90
4390;DHT22;2209;48.982;8.406;2024-01-16T14:31:21;3.90;99.90
4390;DHT22;2209;48.982;8.406;2024-01-16T14:33:43;3.90;99.90
4390;DHT22;2209;48.982;8.406;2024-01-16T14:36:06;3.90;99.60
4390;DHT22;2209;48.982;8.406;2024-01-16T14:38:29;3.90;99.80
4390;DHT22;2209;48.982;8.406;2024-01-16T14:40:51;3.90;99.90
4390;DHT22;2209;48.982;8.406;2024-01-16T14:43:16;3.90;99.60
4390;DHT22;2209;48.982;8.406;2024-01-16T14:45:38;4.00;99.20
4390;DHT22;2209;48.982;8.406;2024-01-16T14:48:00;4.10;99.20
4390;DHT22;2209;48.982;8.406;2024-01-16T14:50:25;4.10;99.40
4390;DHT22;2209;48.982;8.406;2024-01-16T14:52:48;4.10;99.40
4390;DHT22;2209;48.982;8.406;2024-01-16T14:55:11;4.10;99.60
4390;DHT22;2209;48.982;8.406;2024-01-16T14:57:33;4.20;99.80
4390;DHT22;2209;48.982;8.406;2024-01-16T15:00:02;4.10;99.90
4390;DHT22;2209;48.982;8.406;2024-01-16T15:02:24;4.20;99.90
4390;DHT22;2209;48.982;8.406;2024-01-16T15:04:47;4.20;99.80
4390;DHT22;2209;48.982;8.406;2024-01-16T15:07:09;4.20;99.60
4390;DHT22;2209;48.982;8.406;2024-01-16T15:09:31;4.20;99.50
4390;DHT22;2209;48.982;8.406;2024-01-16T15:11:56;4.20;99.50
4390;DHT22;2209;48.982;8.406;2024-01-16T15:14:18;4.20;99.60
4390;DHT22;2209;48.982;8.406;2024-01-16T15:16:40;4.20;99.60
4390;DHT22;2209;48.982;8.406;2024-01-16T15:19:02;4.20;99.50
4390;DHT22;2209;48.982;8.406;2024-01-16T15:21:24;4.30;99.40
4390;DHT22;2209;48.982;8.406;2024-01-16T15:23:46;4.30;99.10
4390;DHT22;2209;48.982;8.406;2024-01-16T15:26:08;4.30;98.80
4390;DHT22;2209;48.982;8.406;2024-01-16T15:28:32;4.30;98.80
4390;DHT22;2209;48.982;8.406;2024-01-16T15:30:54;4.30;98.50
4390;DHT22;2209;48.982;8.406;2024-01-16T15:33:16;4.30;98.40
4390;DHT22;2209;48.982;8.406;2024-01-16T15:35:38;4.20;98.10
4390;DHT22;2209;48.982;8.406;2024-01-16T15:38:00;4.20;97.90
4390;DHT22;2209;48.982;8.406;2024-01-16T15:40:23;4.20;97.90
4390;DHT22;2209;48.982;8.406;2024-01-16T15:42:45;4.20;97.90
4390;DHT22;2209;48.982;8.406;2024-01-16T15:45:09;4.20;97.80
4390;DHT22;2209;48.982;8.406;2024-01-16T15:47:32;4.20;97.90